createdAt,value
2022-11-19T00:00:12.650Z,1.37
2022-11-19T00:02:41.106Z,1.60
2022-11-19T00:05:09.905Z,1.40
2022-11-19T00:07:39.889Z,1.30
2022-11-19T00:10:10.306Z,2.00
2022-11-19T00:12:55.903Z,1.60
2022-11-19T00:15:25.256Z,1.40
2022-11-19T00:17:53.795Z,1.50
2022-11-19T00:20:22.220Z,1.70
2022-11-19T00:22:54.164Z,1.70
2022-11-19T00:25:22.972Z,1.43
2022-11-19T00:27:51.433Z,1.50
2022-11-19T00:30:46.416Z,1.23
2022-11-19T00:33:10.670Z,1.60
2022-11-19T00:35:39.563Z,1.43
2022-11-19T00:38:09.881Z,1.33
2022-11-19T00:40:38.728Z,1.43
2022-11-19T00:43:24.975Z,1.70
2022-11-19T00:45:53.735Z,1.30
2022-11-19T00:48:22.184Z,1.40
2022-11-19T00:50:50.571Z,1.80
2022-11-19T00:53:20.367Z,1.87
2022-11-19T00:55:48.788Z,1.37
2022-11-19T00:58:17.703Z,1.50
2022-11-19T01:00:46.171Z,1.80
2022-11-19T01:03:14.853Z,1.90
2022-11-19T01:05:43.570Z,1.40
2022-11-19T01:08:11.992Z,1.90
2022-11-19T01:10:42.564Z,1.70
2022-11-19T01:13:28.630Z,1.80
2022-11-19T01:15:57.395Z,1.90
2022-11-19T01:18:26.031Z,2.10
2022-11-19T01:20:54.447Z,2.10
2022-11-19T01:23:23.041Z,2.10
2022-11-19T01:25:52.921Z,2.73
2022-11-19T01:28:21.364Z,2.40
2022-11-19T01:30:49.770Z,2.30
2022-11-19T01:33:18.405Z,2.23
2022-11-19T01:35:47.039Z,2.30
2022-11-19T01:38:15.499Z,2.10
2022-11-19T01:40:44.984Z,2.23
2022-11-19T01:43:15.247Z,2.47
2022-11-19T01:45:46.107Z,2.53
2022-11-19T01:48:16.428Z,2.70
2022-11-19T01:50:49.509Z,2.50
2022-11-19T01:53:19.272Z,2.77
2022-11-19T01:55:48.716Z,2.90
2022-11-19T01:58:21.236Z,3.10
2022-11-19T02:00:50.291Z,3.20
2022-11-19T02:03:19.947Z,2.80
2022-11-19T02:05:48.886Z,2.50
2022-11-19T02:08:32.137Z,2.53
2022-11-19T02:11:06.590Z,3.00
2022-11-19T02:13:40.823Z,2.63
2022-11-19T02:16:10.550Z,2.40
2022-11-19T02:18:44.526Z,3.00
2022-11-19T02:21:18.150Z,2.90
2022-11-19T02:23:54.044Z,2.30
2022-11-19T02:26:32.756Z,2.30
2022-11-19T02:29:09.324Z,2.70
2022-11-19T02:31:40.991Z,2.83
2022-11-19T02:34:33.431Z,2.40
2022-11-19T02:37:04.314Z,2.53
2022-11-19T02:39:37.405Z,2.90
2022-11-19T02:42:08.677Z,2.60
2022-11-19T02:44:57.085Z,2.77
2022-11-19T02:47:29.319Z,3.10
2022-11-19T02:49:59.828Z,3.17
2022-11-19T02:52:29.439Z,2.70
2022-11-19T02:54:57.817Z,2.30
2022-11-19T02:57:26.227Z,2.77
2022-11-19T03:00:16.366Z,2.60
2022-11-19T03:03:19.875Z,2.93
2022-11-19T03:05:50.879Z,3.13
2022-11-19T03:08:20.329Z,3.10
2022-11-19T03:10:53.373Z,3.23
2022-11-19T03:13:54.704Z,3.40
2022-11-19T03:16:49.561Z,3.50
2022-11-19T03:19:27.124Z,3.20
2022-11-19T03:21:58.219Z,3.80
2022-11-19T03:24:30.413Z,3.53
2022-11-19T03:27:01.239Z,3.80
2022-11-19T03:29:31.252Z,3.40
2022-11-19T03:32:01.862Z,3.73
2022-11-19T03:34:32.656Z,4.20
2022-11-19T03:37:02.260Z,4.20
2022-11-19T03:39:31.278Z,3.80
2022-11-19T03:41:59.978Z,5.13
2022-11-19T03:44:31.475Z,3.30
2022-11-19T03:47:01.812Z,4.00
2022-11-19T03:49:33.807Z,3.80
2022-11-19T03:52:04.856Z,3.80
2022-11-19T03:54:33.430Z,4.17
2022-11-19T03:57:01.888Z,4.90
2022-11-19T03:59:30.740Z,3.60
2022-11-19T04:02:00.430Z,4.90
2022-11-19T04:04:38.125Z,4.87
2022-11-19T04:07:09.122Z,4.13
2022-11-19T04:09:37.798Z,3.70
2022-11-19T04:12:06.737Z,4.07
2022-11-19T04:14:35.292Z,4.40
2022-11-19T04:17:03.682Z,4.60
2022-11-19T04:19:32.119Z,3.73
2022-11-19T04:22:00.520Z,3.87
2022-11-19T04:24:30.564Z,4.37
2022-11-19T04:26:59.242Z,3.73
2022-11-19T04:29:28.357Z,3.90
2022-11-19T04:31:56.780Z,4.03
2022-11-19T04:34:25.215Z,4.17
2022-11-19T04:36:53.884Z,3.90
2022-11-19T04:39:22.655Z,4.40
2022-11-19T04:41:54.807Z,4.37
2022-11-19T04:44:23.275Z,4.43
2022-11-19T04:46:52.099Z,4.60
2022-11-19T04:49:20.874Z,4.63
2022-11-19T04:51:50.040Z,4.43
2022-11-19T04:54:21.685Z,4.43
2022-11-19T04:56:50.070Z,4.47
2022-11-19T04:59:20.708Z,5.00
2022-11-19T05:01:50.248Z,4.43
2022-11-19T05:04:18.718Z,4.83
2022-11-19T05:06:47.107Z,5.37
2022-11-19T05:09:15.524Z,4.60
2022-11-19T05:11:43.942Z,4.73
2022-11-19T05:14:12.368Z,4.80
2022-11-19T05:16:42.631Z,4.70
2022-11-19T05:19:11.438Z,6.10
2022-11-19T05:21:39.828Z,5.57
2022-11-19T05:24:08.875Z,5.83
2022-11-19T05:26:37.340Z,4.73
2022-11-19T05:29:05.834Z,5.57
2022-11-19T05:31:34.269Z,5.97
2022-11-19T05:34:04.063Z,4.80
2022-11-19T05:36:32.545Z,4.57
2022-11-19T05:39:00.961Z,5.23
2022-11-19T05:41:29.405Z,4.27
2022-11-19T05:43:58.407Z,4.77
2022-11-19T05:46:26.987Z,5.70
2022-11-19T05:48:56.273Z,4.90
2022-11-19T05:51:26.236Z,4.27
2022-11-19T05:53:54.837Z,4.63
2022-11-19T05:56:23.265Z,4.40
2022-11-19T05:58:51.789Z,4.80
2022-11-19T06:01:26.200Z,4.20
2022-11-19T06:03:55.802Z,3.90
2022-11-19T06:06:26.821Z,4.03
2022-11-19T06:08:55.834Z,3.87
2022-11-19T06:11:42.147Z,3.97
2022-11-19T06:14:10.696Z,4.00
2022-11-19T06:16:39.152Z,3.93
2022-11-19T06:19:07.759Z,4.20
2022-11-19T06:21:37.581Z,4.73
2022-11-19T06:24:06.236Z,4.10
2022-11-19T06:26:35.119Z,4.87
2022-11-19T06:29:04.366Z,3.73
2022-11-19T06:31:33.104Z,3.93
2022-11-19T06:34:01.543Z,4.83
2022-11-19T06:36:35.977Z,4.03
2022-11-19T06:39:09.024Z,4.70
2022-11-19T06:41:37.501Z,4.60
2022-11-19T06:44:06.119Z,3.73
2022-11-19T06:46:34.737Z,3.73
2022-11-19T06:49:05.729Z,4.37
2022-11-19T06:51:34.179Z,3.80
2022-11-19T06:54:02.608Z,4.37
2022-11-19T06:56:33.466Z,4.07
2022-11-19T06:59:01.868Z,4.13
2022-11-19T07:01:30.293Z,4.90
2022-11-19T07:03:58.898Z,4.10
2022-11-19T07:06:27.313Z,4.80
2022-11-19T07:08:55.719Z,4.90
2022-11-19T07:11:26.923Z,4.30
2022-11-19T07:14:00.437Z,4.23
2022-11-19T07:16:29.895Z,4.00
2022-11-19T07:18:59.187Z,4.70
2022-11-19T07:21:27.722Z,4.90
2022-11-19T07:23:56.286Z,4.60
2022-11-19T07:26:24.969Z,4.03
2022-11-19T07:28:53.504Z,3.90
2022-11-19T07:31:24.578Z,5.00
2022-11-19T07:33:53.026Z,4.10
2022-11-19T07:36:21.449Z,4.43
2022-11-19T07:38:50.880Z,3.93
2022-11-19T07:41:36.766Z,3.60
2022-11-19T07:44:05.247Z,4.53
2022-11-19T07:46:35.008Z,4.70
2022-11-19T07:49:03.564Z,4.20
2022-11-19T07:51:31.999Z,4.17
2022-11-19T07:54:00.455Z,4.10
2022-11-19T07:56:29.095Z,4.50
2022-11-19T07:58:57.579Z,4.50
2022-11-19T08:01:26.889Z,4.67
2022-11-19T08:03:57.050Z,3.73
2022-11-19T08:06:26.509Z,3.83
2022-11-19T08:08:55.896Z,3.60
2022-11-19T08:11:24.806Z,4.77
2022-11-19T08:13:53.306Z,4.10
2022-11-19T08:16:38.624Z,4.17
2022-11-19T08:19:12.476Z,4.20
2022-11-19T08:21:48.882Z,4.40
2022-11-19T08:24:18.418Z,3.70
2022-11-19T08:26:47.833Z,3.80
2022-11-19T08:29:17.436Z,4.33
2022-11-19T08:31:47.659Z,3.30
2022-11-19T08:34:19.219Z,3.90
2022-11-19T08:36:47.897Z,4.13
2022-11-19T08:39:16.398Z,3.47
2022-11-19T08:42:04.055Z,3.10
2022-11-19T08:44:32.905Z,3.87
2022-11-19T08:47:04.261Z,3.60
2022-11-19T08:49:34.039Z,3.67
2022-11-19T08:52:02.465Z,3.30
2022-11-19T08:54:30.904Z,3.37
2022-11-19T08:56:59.305Z,3.77
2022-11-19T08:59:27.776Z,3.87
2022-11-19T09:01:56.244Z,3.47
2022-11-19T09:04:24.646Z,3.40
2022-11-19T09:06:54.412Z,3.17
2022-11-19T09:09:22.910Z,3.30
2022-11-19T09:11:51.365Z,3.07
2022-11-19T09:14:20.113Z,3.00
2022-11-19T09:16:48.757Z,2.77
2022-11-19T09:19:17.253Z,3.23
2022-11-19T09:21:45.838Z,2.87
2022-11-19T09:24:15.614Z,2.87
2022-11-19T09:26:47.591Z,2.83
2022-11-19T09:29:19.062Z,4.13
2022-11-19T09:31:47.488Z,3.60
2022-11-19T09:34:15.926Z,3.37
2022-11-19T09:36:44.405Z,4.37
2022-11-19T09:39:12.861Z,3.80
2022-11-19T09:41:48.616Z,3.90
2022-11-19T09:44:25.006Z,3.97
2022-11-19T09:46:55.836Z,3.43
2022-11-19T09:49:27.201Z,3.10
2022-11-19T09:51:58.056Z,3.13
2022-11-19T09:54:26.714Z,3.23
2022-11-19T09:57:01.864Z,3.53
2022-11-19T09:59:34.792Z,2.73
2022-11-19T10:02:03.228Z,2.83
2022-11-19T10:04:33.461Z,2.20
2022-11-19T10:07:07.074Z,2.20
2022-11-19T10:09:46.592Z,2.70
2022-11-19T10:12:24.389Z,2.30
2022-11-19T10:15:00.681Z,2.10
2022-11-19T10:17:33.397Z,2.17
2022-11-19T10:20:12.559Z,2.10
2022-11-19T10:22:42.848Z,2.30
2022-11-19T10:25:16.996Z,1.77
2022-11-19T10:27:48.760Z,2.13
2022-11-19T10:30:18.817Z,1.80
2022-11-19T10:32:53.276Z,2.30
2022-11-19T10:35:23.979Z,2.30
2022-11-19T10:37:55.303Z,2.37
2022-11-19T10:40:24.762Z,2.60
2022-11-19T10:42:56.700Z,2.10
2022-11-19T10:45:27.147Z,2.07
2022-11-19T10:47:58.109Z,2.63
2022-11-19T10:50:27.584Z,3.10
2022-11-19T10:52:57.617Z,2.93
2022-11-19T10:55:28.244Z,2.97
2022-11-19T10:58:04.009Z,2.27
2022-11-19T11:00:32.672Z,2.40
2022-11-19T11:03:03.762Z,2.60
2022-11-19T11:05:32.782Z,3.30
2022-11-19T11:08:02.148Z,3.17
2022-11-19T11:10:36.036Z,2.50
2022-11-19T11:13:36.822Z,2.10
2022-11-19T11:16:09.889Z,2.50
2022-11-19T11:18:40.786Z,2.60
2022-11-19T11:21:12.703Z,3.00
2022-11-19T11:23:49.120Z,3.47
2022-11-19T11:26:20.398Z,4.27
2022-11-19T11:28:57.152Z,3.13
2022-11-19T11:31:30.475Z,3.00
2022-11-19T11:33:59.694Z,3.10
2022-11-19T11:36:29.313Z,3.30
2022-11-19T11:38:59.386Z,2.90
2022-11-19T11:44:26.522Z,3.03
2022-11-19T11:46:56.780Z,2.17
2022-11-19T11:49:30.183Z,2.03
2022-11-19T11:52:03.154Z,2.30
2022-11-19T11:54:31.621Z,2.03
2022-11-19T11:57:10.279Z,1.90
2022-11-19T11:59:40.075Z,1.90
2022-11-19T12:02:13.506Z,2.20
2022-11-19T12:04:42.841Z,2.33
2022-11-19T12:07:18.083Z,2.30
2022-11-19T12:09:52.536Z,2.70
2022-11-19T12:12:27.273Z,2.10
2022-11-19T12:14:59.333Z,2.20
2022-11-19T12:17:35.698Z,2.30
2022-11-19T12:20:22.511Z,1.90
2022-11-19T12:22:59.841Z,1.63
2022-11-19T12:25:32.553Z,2.20
2022-11-19T12:28:20.074Z,1.77
2022-11-19T12:30:52.936Z,1.70
2022-11-19T12:33:31.941Z,1.70
2022-11-19T12:36:07.982Z,1.40
2022-11-19T12:38:38.922Z,1.30
2022-11-19T12:41:17.133Z,1.57
2022-11-19T12:43:53.713Z,1.40
2022-11-19T12:46:30.398Z,1.30
2022-11-19T12:49:04.814Z,1.40
2022-11-19T12:51:38.278Z,1.40
2022-11-19T12:54:16.481Z,1.50
2022-11-19T12:56:51.365Z,1.40
2022-11-19T12:59:33.129Z,1.83
2022-11-19T13:02:05.052Z,1.43
2022-11-19T13:04:38.763Z,1.40
2022-11-19T13:07:09.972Z,1.30
2022-11-19T13:09:43.885Z,1.53
2022-11-19T13:12:15.890Z,1.37
2022-11-19T13:14:54.490Z,1.10
2022-11-19T13:17:28.612Z,1.07
2022-11-19T13:19:59.481Z,1.33
2022-11-19T13:22:29.193Z,1.40
2022-11-19T13:25:01.089Z,1.40
2022-11-19T13:27:30.417Z,1.10
2022-11-19T13:30:01.513Z,1.10
2022-11-19T13:32:35.635Z,1.20
2022-11-19T13:35:12.045Z,1.30
2022-11-19T13:37:45.418Z,1.30
2022-11-19T13:40:19.461Z,1.47
2022-11-19T13:43:30.562Z,1.40
2022-11-19T13:45:57.440Z,1.30
2022-11-19T13:48:29.524Z,1.43
2022-11-19T13:50:59.767Z,1.70
2022-11-19T13:53:33.919Z,1.50
2022-11-19T13:56:02.564Z,1.60
2022-11-19T13:58:35.707Z,1.40
2022-11-19T14:01:22.420Z,1.33
2022-11-19T14:03:58.731Z,1.40
2022-11-19T14:06:37.626Z,1.33
2022-11-19T14:09:13.260Z,1.70
2022-11-19T14:12:01.499Z,1.53
2022-11-19T14:14:55.755Z,1.70
2022-11-19T14:18:00.721Z,1.53
2022-11-19T14:20:53.091Z,1.37
2022-11-19T14:23:56.149Z,1.60
2022-11-19T14:26:49.806Z,1.70
2022-11-19T14:29:39.302Z,1.40
2022-11-19T14:32:20.756Z,1.67
2022-11-19T14:35:09.270Z,1.40
2022-11-19T14:37:41.953Z,1.43
2022-11-19T14:40:11.632Z,1.30
2022-11-19T14:43:14.134Z,1.90
2022-11-19T14:45:42.764Z,1.60
2022-11-19T14:48:11.263Z,1.63
2022-11-19T14:50:39.754Z,1.73
2022-11-19T14:53:19.557Z,1.80
2022-11-19T14:55:54.765Z,1.70
2022-11-19T14:58:25.060Z,1.77
2022-11-19T15:01:07.153Z,1.80
2022-11-19T15:03:37.728Z,2.60
2022-11-19T15:06:08.103Z,2.43
2022-11-19T15:08:50.427Z,2.50
2022-11-19T15:11:19.625Z,2.50
2022-11-19T15:13:48.624Z,2.67
2022-11-19T15:16:17.955Z,2.37
2022-11-19T15:18:56.088Z,2.07
2022-11-19T15:21:40.013Z,2.20
2022-11-19T15:24:15.983Z,1.73
2022-11-19T15:26:50.784Z,1.53
2022-11-19T15:29:23.594Z,1.60
2022-11-19T15:32:02.636Z,1.70
2022-11-19T15:35:03.831Z,1.50
2022-11-19T15:37:32.097Z,1.77
2022-11-19T15:40:05.108Z,1.90
2022-11-19T15:42:34.730Z,1.80
2022-11-19T15:45:05.955Z,1.70
2022-11-19T15:47:38.871Z,1.50
2022-11-19T15:50:08.063Z,1.60
2022-11-19T15:52:36.519Z,1.30
2022-11-19T15:55:13.481Z,1.30
2022-11-19T15:57:43.765Z,1.50
2022-11-19T16:00:17.520Z,1.90
2022-11-19T16:02:47.466Z,1.67
2022-11-19T16:05:21.422Z,1.73
2022-11-19T16:07:50.582Z,1.47
2022-11-19T16:10:23.730Z,1.60
2022-11-19T16:13:13.151Z,1.90
2022-11-19T16:16:06.704Z,2.10
2022-11-19T16:18:35.158Z,1.70
2022-11-19T16:21:03.646Z,1.97
2022-11-19T16:23:52.176Z,1.73
2022-11-19T16:26:21.993Z,2.10
2022-11-19T16:28:50.570Z,2.20
2022-11-19T16:31:19.100Z,2.37
2022-11-19T16:33:54.882Z,2.60
2022-11-19T16:36:24.430Z,2.30
2022-11-19T16:38:53.614Z,2.67
2022-11-19T16:41:42.860Z,2.40
2022-11-19T16:44:13.720Z,4.00
2022-11-19T16:46:42.465Z,2.50
2022-11-19T16:49:15.446Z,2.90
2022-11-19T16:51:53.211Z,2.93
2022-11-19T16:54:36.528Z,2.97
2022-11-19T16:57:07.403Z,3.60
2022-11-19T16:59:36.374Z,3.70
2022-11-19T17:02:05.101Z,3.60
2022-11-19T17:04:33.714Z,4.30
2022-11-19T17:07:02.459Z,4.33
2022-11-19T17:09:32.437Z,4.37
2022-11-19T17:12:19.026Z,3.80
2022-11-19T17:14:51.005Z,3.97
2022-11-19T17:17:27.094Z,4.13
2022-11-19T17:19:57.577Z,4.37
2022-11-19T17:22:28.809Z,3.80
2022-11-19T17:24:57.414Z,3.07
2022-11-19T17:27:27.518Z,3.23
2022-11-19T17:30:00.141Z,3.30
2022-11-19T17:32:29.192Z,3.77
2022-11-19T17:34:57.676Z,3.97
2022-11-19T17:37:26.050Z,4.00
2022-11-19T17:39:54.525Z,4.50
2022-11-19T17:42:40.923Z,4.10
2022-11-19T17:45:11.690Z,3.63
2022-11-19T17:47:40.175Z,4.10
2022-11-19T17:50:09.133Z,4.20
2022-11-19T17:52:37.604Z,3.67
2022-11-19T17:55:12.639Z,3.90
2022-11-19T17:57:42.781Z,3.73
2022-11-19T18:00:13.526Z,3.13
2022-11-19T18:02:41.966Z,3.67
2022-11-19T18:05:15.483Z,3.77
2022-11-19T18:07:44.212Z,3.13
2022-11-19T18:10:13.000Z,3.17
2022-11-19T18:12:41.401Z,4.00
2022-11-19T18:15:15.366Z,3.43
2022-11-19T18:17:43.819Z,3.03
2022-11-19T18:20:12.560Z,3.50
2022-11-19T18:22:41.233Z,3.50
2022-11-19T18:25:14.657Z,3.70
2022-11-19T18:27:43.067Z,3.93
2022-11-19T18:30:14.461Z,3.67
2022-11-19T18:32:42.877Z,3.43
2022-11-19T18:35:13.949Z,3.13
2022-11-19T18:37:42.430Z,2.90
2022-11-19T18:40:11.313Z,3.20
2022-11-19T18:43:00.085Z,2.97
2022-11-19T18:45:28.890Z,3.33
2022-11-19T18:47:57.390Z,2.80
2022-11-19T18:50:29.815Z,2.83
2022-11-19T18:52:58.821Z,2.80
2022-11-19T18:55:27.406Z,2.83
2022-11-19T18:57:55.992Z,3.50
2022-11-19T19:00:25.087Z,2.60
2022-11-19T19:02:54.890Z,2.50
2022-11-19T19:05:23.296Z,2.90
2022-11-19T19:07:51.678Z,3.30
2022-11-19T19:10:20.277Z,2.93
2022-11-19T19:12:47.753Z,2.70
2022-11-19T19:15:16.272Z,2.50
2022-11-19T19:17:44.697Z,2.90
2022-11-19T19:20:17.773Z,2.97
2022-11-19T19:22:46.255Z,2.80
2022-11-19T19:25:14.670Z,2.97
2022-11-19T19:27:43.146Z,2.60
2022-11-19T19:30:11.968Z,2.07
2022-11-19T19:32:40.425Z,2.30
2022-11-19T19:35:09.243Z,2.20
2022-11-19T19:37:39.853Z,2.80
2022-11-19T19:40:09.185Z,2.40
2022-11-19T19:42:41.291Z,2.23
2022-11-19T19:45:10.478Z,2.50
2022-11-19T19:47:38.965Z,2.33
2022-11-19T19:50:08.837Z,2.60
2022-11-19T19:52:38.665Z,2.63
2022-11-19T19:55:07.789Z,3.27
2022-11-19T19:57:36.183Z,2.87
2022-11-19T20:00:04.823Z,2.87
2022-11-19T20:02:40.611Z,2.50
2022-11-19T20:05:09.828Z,2.70
2022-11-19T20:07:39.867Z,2.73
2022-11-19T20:10:08.980Z,2.57
2022-11-19T20:12:51.327Z,2.80
2022-11-19T20:15:23.047Z,2.37
2022-11-19T20:17:51.530Z,2.83
2022-11-19T20:20:20.068Z,3.00
2022-11-19T20:22:49.870Z,2.67
2022-11-19T20:25:18.448Z,2.83
2022-11-19T20:27:47.026Z,3.30
2022-11-19T20:30:15.605Z,3.10
2022-11-19T20:32:44.049Z,3.30
2022-11-19T20:35:12.448Z,3.30
2022-11-19T20:37:41.662Z,2.73
2022-11-19T20:40:12.230Z,3.37
2022-11-19T20:42:58.382Z,2.70
2022-11-19T20:45:26.821Z,3.03
2022-11-19T20:47:56.015Z,3.10
2022-11-19T20:50:32.089Z,2.93
2022-11-19T20:53:01.891Z,3.23
2022-11-19T20:55:31.729Z,3.30
2022-11-19T20:58:01.545Z,2.80
2022-11-19T21:00:29.938Z,3.20
2022-11-19T21:02:58.403Z,2.73
2022-11-19T21:05:33.978Z,3.00
2022-11-19T21:08:02.425Z,3.30
2022-11-19T21:10:32.270Z,3.17
2022-11-19T21:13:03.530Z,2.90
2022-11-19T21:15:32.134Z,2.80
2022-11-19T21:18:02.521Z,2.60
2022-11-19T21:20:31.375Z,2.83
2022-11-19T21:22:59.809Z,2.90
2022-11-19T21:25:28.215Z,2.87
2022-11-19T21:27:57.990Z,2.70
2022-11-19T21:30:26.419Z,2.43
2022-11-19T21:32:54.869Z,2.67
2022-11-19T21:35:23.329Z,2.87
2022-11-19T21:37:51.694Z,2.57
2022-11-19T21:40:20.111Z,3.13
2022-11-19T21:42:48.742Z,2.93
2022-11-19T21:45:18.546Z,3.20
2022-11-19T21:47:47.004Z,2.80
2022-11-19T21:50:17.157Z,2.83
2022-11-19T21:52:45.740Z,2.90
2022-11-19T21:55:14.219Z,3.50
2022-11-19T21:57:42.879Z,3.43
2022-11-19T22:00:12.661Z,3.40
2022-11-19T22:02:46.352Z,3.60
2022-11-19T22:05:14.765Z,3.60
2022-11-19T22:07:46.144Z,4.30
2022-11-19T22:10:14.934Z,4.13
2022-11-19T22:12:43.726Z,4.00
2022-11-19T22:15:12.765Z,4.40
2022-11-19T22:17:41.257Z,4.27
2022-11-19T22:20:11.832Z,4.67
2022-11-19T22:22:44.919Z,4.47
2022-11-19T22:25:13.545Z,4.23
2022-11-19T22:27:44.414Z,4.93
2022-11-19T22:30:13.440Z,4.30
2022-11-19T22:32:42.025Z,5.10
2022-11-19T22:35:11.979Z,5.83
2022-11-19T22:37:40.390Z,5.00
2022-11-19T22:40:09.667Z,5.00
2022-11-19T22:42:38.096Z,4.97
2022-11-19T22:45:07.091Z,5.40
2022-11-19T22:47:35.859Z,4.90
2022-11-19T22:50:04.394Z,5.63
2022-11-19T22:52:34.144Z,5.70
2022-11-19T22:55:02.757Z,6.10
2022-11-19T22:57:31.190Z,6.17
2022-11-19T22:59:59.701Z,6.07
2022-11-19T23:02:28.133Z,5.53
2022-11-19T23:04:56.541Z,5.37
2022-11-19T23:07:25.044Z,4.93
2022-11-19T23:09:54.961Z,5.77
2022-11-19T23:12:49.348Z,5.77
2022-11-19T23:15:18.631Z,5.50
2022-11-19T23:17:47.030Z,5.47
2022-11-19T23:20:15.507Z,5.53
2022-11-19T23:22:44.020Z,5.30
2022-11-19T23:25:13.841Z,5.13
2022-11-19T23:27:42.314Z,5.63
2022-11-19T23:30:11.377Z,4.90
2022-11-19T23:32:40.809Z,5.23
2022-11-19T23:35:09.702Z,5.40
2022-11-19T23:37:38.198Z,6.37
2022-11-19T23:40:07.329Z,5.23
2022-11-19T23:42:37.535Z,4.90
2022-11-19T23:45:06.602Z,5.47
2022-11-19T23:47:38.286Z,5.37
2022-11-19T23:50:07.191Z,5.63
2022-11-19T23:52:35.602Z,6.17
2022-11-19T23:55:04.120Z,5.97
2022-11-19T23:57:32.534Z,5.60
